sensor_id;sensor_type;location;lat;lon;timestamp;P1;durP1;ratioP1;P2;durP2;ratioP2
41043;SDS011;51680;49.806;18.774;2023-08-07T00:01:12;2.15;;;1.35;;
41043;SDS011;51680;49.806;18.774;2023-08-07T00:04:14;2.83;;;1.50;;
41043;SDS011;51680;49.806;18.774;2023-08-07T00:07:16;1.80;;;1.33;;
41043;SDS011;51680;49.806;18.774;2023-08-07T00:10:18;5.63;;;1.48;;
41043;SDS011;51680;49.806;18.774;2023-08-07T00:13:21;3.90;;;1.55;;
41043;SDS011;51680;49.806;18.774;2023-08-07T00:16:23;3.45;;;1.55;;
41043;SDS011;51680;49.806;18.774;2023-08-07T00:19:25;1.73;;;1.15;;
41043;SDS011;51680;49.806;18.774;2023-08-07T00:22:26;6.40;;;1.58;;
41043;SDS011;51680;49.806;18.774;2023-08-07T00:25:28;4.05;;;1.45;;
41043;SDS011;51680;49.806;18.774;2023-08-07T00:28:31;4.10;;;1.30;;
41043;SDS011;51680;49.806;18.774;2023-08-07T00:31:33;4.03;;;1.50;;
41043;SDS011;51680;49.806;18.774;2023-08-07T00:34:35;2.00;;;1.30;;
41043;SDS011;51680;49.806;18.774;2023-08-07T00:37:36;2.90;;;1.20;;
41043;SDS011;51680;49.806;18.774;2023-08-07T00:40:39;3.05;;;1.10;;
41043;SDS011;51680;49.806;18.774;2023-08-07T00:43:42;6.57;;;1.10;;
41043;SDS011;51680;49.806;18.774;2023-08-07T00:46:44;1.85;;;1.17;;
41043;SDS011;51680;49.806;18.774;2023-08-07T00:49:46;2.67;;;1.10;;
41043;SDS011;51680;49.806;18.774;2023-08-07T00:52:48;4.60;;;1.30;;
41043;SDS011;51680;49.806;18.774;2023-08-07T00:55:50;3.58;;;1.10;;
41043;SDS011;51680;49.806;18.774;2023-08-07T00:58:54;4.05;;;0.88;;
41043;SDS011;51680;49.806;18.774;2023-08-07T01:01:56;2.37;;;1.07;;
41043;SDS011;51680;49.806;18.774;2023-08-07T01:04:57;3.40;;;1.30;;
41043;SDS011;51680;49.806;18.774;2023-08-07T01:08:00;2.53;;;1.10;;
41043;SDS011;51680;49.806;18.774;2023-08-07T01:11:08;1.85;;;0.85;;
41043;SDS011;51680;49.806;18.774;2023-08-07T01:14:23;2.72;;;1.08;;
41043;SDS011;51680;49.806;18.774;2023-08-07T01:17:30;3.70;;;1.20;;
41043;SDS011;51680;49.806;18.774;2023-08-07T01:20:34;4.45;;;1.20;;
41043;SDS011;51680;49.806;18.774;2023-08-07T01:23:37;2.45;;;0.90;;
41043;SDS011;51680;49.806;18.774;2023-08-07T01:26:40;1.70;;;0.90;;
41043;SDS011;51680;49.806;18.774;2023-08-07T01:29:48;1.65;;;0.90;;
41043;SDS011;51680;49.806;18.774;2023-08-07T01:32:57;3.03;;;1.00;;
41043;SDS011;51680;49.806;18.774;2023-08-07T01:36:05;1.95;;;0.82;;
41043;SDS011;51680;49.806;18.774;2023-08-07T01:39:11;1.20;;;0.90;;
41043;SDS011;51680;49.806;18.774;2023-08-07T01:42:13;1.40;;;0.70;;
41043;SDS011;51680;49.806;18.774;2023-08-07T01:45:21;9.35;;;1.00;;
41043;SDS011;51680;49.806;18.774;2023-08-07T01:48:24;3.25;;;0.90;;
41043;SDS011;51680;49.806;18.774;2023-08-07T01:51:26;4.15;;;1.15;;
41043;SDS011;51680;49.806;18.774;2023-08-07T01:54:29;2.97;;;0.85;;
41043;SDS011;51680;49.806;18.774;2023-08-07T01:57:30;5.30;;;1.00;;
41043;SDS011;51680;49.806;18.774;2023-08-07T02:00:32;1.60;;;0.88;;
41043;SDS011;51680;49.806;18.774;2023-08-07T02:03:34;5.30;;;0.93;;
41043;SDS011;51680;49.806;18.774;2023-08-07T02:06:35;3.33;;;1.00;;
41043;SDS011;51680;49.806;18.774;2023-08-07T02:09:39;2.53;;;0.85;;
41043;SDS011;51680;49.806;18.774;2023-08-07T02:12:42;1.67;;;0.90;;
41043;SDS011;51680;49.806;18.774;2023-08-07T02:15:44;2.30;;;0.73;;
41043;SDS011;51680;49.806;18.774;2023-08-07T02:18:45;3.67;;;0.70;;
41043;SDS011;51680;49.806;18.774;2023-08-07T02:21:47;0.68;;;0.55;;
41043;SDS011;51680;49.806;18.774;2023-08-07T02:24:50;3.67;;;0.80;;
41043;SDS011;51680;49.806;18.774;2023-08-07T02:27:52;3.30;;;0.67;;
41043;SDS011;51680;49.806;18.774;2023-08-07T02:30:54;1.83;;;0.50;;
41043;SDS011;51680;49.806;18.774;2023-08-07T02:33:55;4.20;;;0.60;;
41043;SDS011;51680;49.806;18.774;2023-08-07T02:36:57;1.25;;;0.50;;
41043;SDS011;51680;49.806;18.774;2023-08-07T02:40:01;1.90;;;0.40;;
41043;SDS011;51680;49.806;18.774;2023-08-07T02:43:03;3.97;;;0.60;;
41043;SDS011;51680;49.806;18.774;2023-08-07T02:46:04;1.25;;;0.40;;
41043;SDS011;51680;49.806;18.774;2023-08-07T02:49:06;2.75;;;0.40;;
41043;SDS011;51680;49.806;18.774;2023-08-07T02:52:08;1.45;;;0.50;;
41043;SDS011;51680;49.806;18.774;2023-08-07T02:55:11;1.65;;;0.57;;
41043;SDS011;51680;49.806;18.774;2023-08-07T02:58:13;3.97;;;0.60;;
41043;SDS011;51680;49.806;18.774;2023-08-07T03:01:14;4.32;;;0.57;;
41043;SDS011;51680;49.806;18.774;2023-08-07T03:04:17;4.53;;;0.40;;
41043;SDS011;51680;49.806;18.774;2023-08-07T03:07:18;0.50;;;0.30;;
41043;SDS011;51680;49.806;18.774;2023-08-07T03:10:21;1.73;;;0.50;;
41043;SDS011;51680;49.806;18.774;2023-08-07T03:13:23;0.63;;;0.30;;
41043;SDS011;51680;49.806;18.774;2023-08-07T03:16:26;1.73;;;0.30;;
41043;SDS011;51680;49.806;18.774;2023-08-07T03:19:27;3.67;;;0.35;;
41043;SDS011;51680;49.806;18.774;2023-08-07T03:22:29;1.90;;;0.40;;
41043;SDS011;51680;49.806;18.774;2023-08-07T03:25:32;1.80;;;0.40;;
41043;SDS011;51680;49.806;18.774;2023-08-07T03:28:35;1.35;;;0.40;;
41043;SDS011;51680;49.806;18.774;2023-08-07T03:31:37;4.45;;;0.32;;
41043;SDS011;51680;49.806;18.774;2023-08-07T03:34:40;0.90;;;0.20;;
41043;SDS011;51680;49.806;18.774;2023-08-07T03:37:42;3.00;;;1.05;;
41043;SDS011;51680;49.806;18.774;2023-08-07T03:40:45;1.75;;;0.30;;
41043;SDS011;51680;49.806;18.774;2023-08-07T03:43:47;0.47;;;0.20;;
41043;SDS011;51680;49.806;18.774;2023-08-07T03:46:49;3.28;;;0.28;;
41043;SDS011;51680;49.806;18.774;2023-08-07T03:49:56;0.80;;;0.13;;
41043;SDS011;51680;49.806;18.774;2023-08-07T03:52:57;0.98;;;0.20;;
41043;SDS011;51680;49.806;18.774;2023-08-07T03:56:01;0.52;;;0.10;;
41043;SDS011;51680;49.806;18.774;2023-08-07T03:59:04;0.30;;;0.10;;
41043;SDS011;51680;49.806;18.774;2023-08-07T04:02:07;0.20;;;0.10;;
41043;SDS011;51680;49.806;18.774;2023-08-07T04:05:08;0.75;;;0.20;;
41043;SDS011;51680;49.806;18.774;2023-08-07T04:08:12;4.60;;;0.38;;
41043;SDS011;51680;49.806;18.774;2023-08-07T04:11:15;1.08;;;0.38;;
41043;SDS011;51680;49.806;18.774;2023-08-07T04:14:17;1.38;;;0.15;;
41043;SDS011;51680;49.806;18.774;2023-08-07T04:17:19;2.13;;;0.10;;
41043;SDS011;51680;49.806;18.774;2023-08-07T04:20:20;0.55;;;0.15;;
41043;SDS011;51680;49.806;18.774;2023-08-07T04:23:23;1.55;;;0.10;;
41043;SDS011;51680;49.806;18.774;2023-08-07T04:26:26;0.22;;;0.00;;
41043;SDS011;51680;49.806;18.774;2023-08-07T04:29:28;2.73;;;0.10;;
41043;SDS011;51680;49.806;18.774;2023-08-07T04:32:30;1.27;;;0.10;;
41043;SDS011;51680;49.806;18.774;2023-08-07T04:35:31;4.55;;;0.30;;
41043;SDS011;51680;49.806;18.774;2023-08-07T04:38:33;3.63;;;0.30;;
41043;SDS011;51680;49.806;18.774;2023-08-07T04:41:36;2.38;;;0.50;;
41043;SDS011;51680;49.806;18.774;2023-08-07T04:44:38;4.27;;;0.27;;
41043;SDS011;51680;49.806;18.774;2023-08-07T04:47:40;4.20;;;0.38;;
41043;SDS011;51680;49.806;18.774;2023-08-07T04:50:41;1.85;;;0.10;;
41043;SDS011;51680;49.806;18.774;2023-08-07T04:53:43;0.73;;;0.20;;
41043;SDS011;51680;49.806;18.774;2023-08-07T04:56:46;3.05;;;0.10;;
41043;SDS011;51680;49.806;18.774;2023-08-07T04:59:48;0.10;;;0.07;;
41043;SDS011;51680;49.806;18.774;2023-08-07T05:02:51;2.40;;;0.10;;
41043;SDS011;51680;49.806;18.774;2023-08-07T05:05:57;1.48;;;0.13;;
41043;SDS011;51680;49.806;18.774;2023-08-07T05:08:59;0.20;;;0.10;;
41043;SDS011;51680;49.806;18.774;2023-08-07T05:12:03;3.83;;;0.10;;
41043;SDS011;51680;49.806;18.774;2023-08-07T05:15:05;0.00;;;0.00;;
41043;SDS011;51680;49.806;18.774;2023-08-07T05:18:08;2.50;;;0.10;;
41043;SDS011;51680;49.806;18.774;2023-08-07T05:21:09;0.30;;;0.10;;
41043;SDS011;51680;49.806;18.774;2023-08-07T05:24:11;0.50;;;0.10;;
41043;SDS011;51680;49.806;18.774;2023-08-07T05:27:15;0.20;;;0.03;;
41043;SDS011;51680;49.806;18.774;2023-08-07T05:30:16;0.83;;;0.10;;
41043;SDS011;51680;49.806;18.774;2023-08-07T05:33:18;0.88;;;0.10;;
41043;SDS011;51680;49.806;18.774;2023-08-07T05:36:20;1.80;;;0.10;;
41043;SDS011;51680;49.806;18.774;2023-08-07T05:39:21;2.58;;;0.20;;
41043;SDS011;51680;49.806;18.774;2023-08-07T05:42:24;0.10;;;0.00;;
41043;SDS011;51680;49.806;18.774;2023-08-07T05:45:26;1.50;;;0.10;;
41043;SDS011;51680;49.806;18.774;2023-08-07T05:48:28;1.05;;;0.08;;
41043;SDS011;51680;49.806;18.774;2023-08-07T05:51:30;0.80;;;0.10;;
41043;SDS011;51680;49.806;18.774;2023-08-07T05:54:32;1.00;;;0.10;;
41043;SDS011;51680;49.806;18.774;2023-08-07T05:57:35;0.10;;;0.00;;
41043;SDS011;51680;49.806;18.774;2023-08-07T06:00:37;0.40;;;0.03;;
41043;SDS011;51680;49.806;18.774;2023-08-07T06:03:38;1.35;;;0.10;;
41043;SDS011;51680;49.806;18.774;2023-08-07T06:06:40;5.88;;;0.10;;
41043;SDS011;51680;49.806;18.774;2023-08-07T06:09:43;1.15;;;0.10;;
41043;SDS011;51680;49.806;18.774;2023-08-07T06:12:50;2.60;;;0.10;;
41043;SDS011;51680;49.806;18.774;2023-08-07T06:15:52;0.70;;;0.00;;
41043;SDS011;51680;49.806;18.774;2023-08-07T06:18:54;0.40;;;0.05;;
41043;SDS011;51680;49.806;18.774;2023-08-07T06:21:56;2.70;;;0.10;;
41043;SDS011;51680;49.806;18.774;2023-08-07T06:24:58;0.82;;;0.00;;
41043;SDS011;51680;49.806;18.774;2023-08-07T06:28:01;0.65;;;0.00;;
41043;SDS011;51680;49.806;18.774;2023-08-07T06:31:03;1.90;;;0.10;;
41043;SDS011;51680;49.806;18.774;2023-08-07T06:34:06;1.83;;;0.20;;
41043;SDS011;51680;49.806;18.774;2023-08-07T06:37:07;0.57;;;0.20;;
41043;SDS011;51680;49.806;18.774;2023-08-07T06:40:09;0.20;;;0.05;;
41043;SDS011;51680;49.806;18.774;2023-08-07T06:43:13;0.35;;;0.15;;
41043;SDS011;51680;49.806;18.774;2023-08-07T06:46:15;1.07;;;0.20;;
41043;SDS011;51680;49.806;18.774;2023-08-07T06:49:17;0.52;;;0.10;;
41043;SDS011;51680;49.806;18.774;2023-08-07T06:52:18;0.75;;;0.25;;
41043;SDS011;51680;49.806;18.774;2023-08-07T06:55:20;1.63;;;0.20;;
41043;SDS011;51680;49.806;18.774;2023-08-07T06:58:23;1.15;;;0.22;;
41043;SDS011;51680;49.806;18.774;2023-08-07T07:01:25;2.67;;;0.10;;
41043;SDS011;51680;49.806;18.774;2023-08-07T07:04:27;1.20;;;0.30;;
41043;SDS011;51680;49.806;18.774;2023-08-07T07:07:29;2.30;;;0.10;;
41043;SDS011;51680;49.806;18.774;2023-08-07T07:10:31;2.10;;;0.17;;
41043;SDS011;51680;49.806;18.774;2023-08-07T07:13:34;1.73;;;0.17;;
41043;SDS011;51680;49.806;18.774;2023-08-07T07:16:35;2.87;;;0.20;;
41043;SDS011;51680;49.806;18.774;2023-08-07T07:19:43;0.57;;;0.08;;
41043;SDS011;51680;49.806;18.774;2023-08-07T07:22:44;0.40;;;0.00;;
41043;SDS011;51680;49.806;18.774;2023-08-07T07:25:46;0.85;;;0.30;;
41043;SDS011;51680;49.806;18.774;2023-08-07T07:28:49;1.42;;;0.10;;
41043;SDS011;51680;49.806;18.774;2023-08-07T07:31:51;1.85;;;0.10;;
41043;SDS011;51680;49.806;18.774;2023-08-07T07:34:55;1.42;;;0.20;;
41043;SDS011;51680;49.806;18.774;2023-08-07T07:37:56;1.85;;;0.10;;
41043;SDS011;51680;49.806;18.774;2023-08-07T07:40:58;0.20;;;0.10;;
41043;SDS011;51680;49.806;18.774;2023-08-07T07:44:01;0.73;;;0.10;;
41043;SDS011;51680;49.806;18.774;2023-08-07T07:47:03;0.40;;;0.20;;
41043;SDS011;51680;49.806;18.774;2023-08-07T07:50:06;2.08;;;0.20;;
41043;SDS011;51680;49.806;18.774;2023-08-07T07:56:11;0.95;;;0.13;;
41043;SDS011;51680;49.806;18.774;2023-08-07T07:59:14;0.20;;;0.10;;
41043;SDS011;51680;49.806;18.774;2023-08-07T08:02:16;0.00;;;0.00;;
41043;SDS011;51680;49.806;18.774;2023-08-07T08:05:19;0.47;;;0.10;;
41043;SDS011;51680;49.806;18.774;2023-08-07T08:08:21;1.48;;;0.10;;
41043;SDS011;51680;49.806;18.774;2023-08-07T08:11:23;0.10;;;0.10;;
41043;SDS011;51680;49.806;18.774;2023-08-07T08:14:26;1.85;;;0.10;;
41043;SDS011;51680;49.806;18.774;2023-08-07T08:17:28;0.67;;;0.10;;
41043;SDS011;51680;49.806;18.774;2023-08-07T08:20:29;1.30;;;0.08;;
41043;SDS011;51680;49.806;18.774;2023-08-07T08:23:32;0.40;;;0.10;;
41043;SDS011;51680;49.806;18.774;2023-08-07T08:26:34;0.40;;;0.10;;
41043;SDS011;51680;49.806;18.774;2023-08-07T08:29:37;1.30;;;0.10;;
41043;SDS011;51680;49.806;18.774;2023-08-07T08:32:39;0.68;;;0.13;;
41043;SDS011;51680;49.806;18.774;2023-08-07T08:35:41;0.30;;;0.10;;
41043;SDS011;51680;49.806;18.774;2023-08-07T08:38:43;0.40;;;0.10;;
41043;SDS011;51680;49.806;18.774;2023-08-07T08:41:45;1.33;;;0.20;;
41043;SDS011;51680;49.806;18.774;2023-08-07T08:44:51;0.13;;;0.08;;
41043;SDS011;51680;49.806;18.774;2023-08-07T08:47:54;1.65;;;0.10;;
41043;SDS011;51680;49.806;18.774;2023-08-07T08:51:00;1.40;;;0.20;;
41043;SDS011;51680;49.806;18.774;2023-08-07T08:54:03;0.10;;;0.10;;
41043;SDS011;51680;49.806;18.774;2023-08-07T08:57:08;0.08;;;0.00;;
41043;SDS011;51680;49.806;18.774;2023-08-07T09:00:12;0.75;;;0.10;;
41043;SDS011;51680;49.806;18.774;2023-08-07T09:03:20;0.38;;;0.17;;
41043;SDS011;51680;49.806;18.774;2023-08-07T09:06:22;1.90;;;0.10;;
41043;SDS011;51680;49.806;18.774;2023-08-07T09:09:24;1.42;;;0.10;;
41043;SDS011;51680;49.806;18.774;2023-08-07T09:12:26;0.20;;;0.10;;
41043;SDS011;51680;49.806;18.774;2023-08-07T09:15:34;0.63;;;0.05;;
41043;SDS011;51680;49.806;18.774;2023-08-07T09:18:39;0.63;;;0.20;;
41043;SDS011;51680;49.806;18.774;2023-08-07T09:21:41;3.25;;;0.13;;
41043;SDS011;51680;49.806;18.774;2023-08-07T09:24:43;0.32;;;0.15;;
41043;SDS011;51680;49.806;18.774;2023-08-07T09:27:44;0.68;;;0.20;;
41043;SDS011;51680;49.806;18.774;2023-08-07T09:30:47;0.00;;;0.00;;
41043;SDS011;51680;49.806;18.774;2023-08-07T09:33:49;0.10;;;0.10;;
41043;SDS011;51680;49.806;18.774;2023-08-07T09:36:51;0.17;;;0.10;;
41043;SDS011;51680;49.806;18.774;2023-08-07T09:39:53;0.57;;;0.10;;
41043;SDS011;51680;49.806;18.774;2023-08-07T09:42:55;0.25;;;0.10;;
41043;SDS011;51680;49.806;18.774;2023-08-07T09:46:03;0.10;;;0.10;;
41043;SDS011;51680;49.806;18.774;2023-08-07T09:49:05;1.23;;;0.10;;
41043;SDS011;51680;49.806;18.774;2023-08-07T09:52:07;0.25;;;0.10;;
41043;SDS011;51680;49.806;18.774;2023-08-07T09:55:10;0.75;;;0.20;;
41043;SDS011;51680;49.806;18.774;2023-08-07T09:58:13;0.15;;;0.10;;
41043;SDS011;51680;49.806;18.774;2023-08-07T10:01:18;0.40;;;0.10;;
41043;SDS011;51680;49.806;18.774;2023-08-07T10:04:20;0.10;;;0.10;;
41043;SDS011;51680;49.806;18.774;2023-08-07T10:07:22;0.55;;;0.10;;
41043;SDS011;51680;49.806;18.774;2023-08-07T10:10:24;0.00;;;0.00;;
41043;SDS011;51680;49.806;18.774;2023-08-07T10:13:26;2.05;;;0.17;;
41043;SDS011;51680;49.806;18.774;2023-08-07T10:19:38;1.48;;;0.20;;
41043;SDS011;51680;49.806;18.774;2023-08-07T10:22:40;0.10;;;0.10;;
41043;SDS011;51680;49.806;18.774;2023-08-07T10:25:43;0.25;;;0.13;;
41043;SDS011;51680;49.806;18.774;2023-08-07T10:28:47;0.32;;;0.10;;
41043;SDS011;51680;49.806;18.774;2023-08-07T10:31:55;0.45;;;0.10;;
41043;SDS011;51680;49.806;18.774;2023-08-07T10:35:02;0.13;;;0.10;;
41043;SDS011;51680;49.806;18.774;2023-08-07T10:38:05;0.15;;;0.10;;
41043;SDS011;51680;49.806;18.774;2023-08-07T10:41:08;0.30;;;0.08;;
41043;SDS011;51680;49.806;18.774;2023-08-07T10:44:17;1.00;;;0.10;;
41043;SDS011;51680;49.806;18.774;2023-08-07T10:47:33;0.17;;;0.10;;
41043;SDS011;51680;49.806;18.774;2023-08-07T10:50:36;0.50;;;0.10;;
41043;SDS011;51680;49.806;18.774;2023-08-07T10:53:50;0.43;;;0.08;;
41043;SDS011;51680;49.806;18.774;2023-08-07T10:56:56;2.25;;;0.30;;
41043;SDS011;51680;49.806;18.774;2023-08-07T11:00:02;1.10;;;0.10;;
41043;SDS011;51680;49.806;18.774;2023-08-07T11:03:09;0.17;;;0.10;;
41043;SDS011;51680;49.806;18.774;2023-08-07T11:06:11;0.05;;;0.00;;
41043;SDS011;51680;49.806;18.774;2023-08-07T11:09:13;1.83;;;0.10;;
41043;SDS011;51680;49.806;18.774;2023-08-07T11:12:14;0.55;;;0.10;;
41043;SDS011;51680;49.806;18.774;2023-08-07T11:15:16;0.98;;;0.00;;
41043;SDS011;51680;49.806;18.774;2023-08-07T11:18:19;2.03;;;0.15;;
41043;SDS011;51680;49.806;18.774;2023-08-07T11:21:21;0.57;;;0.17;;
41043;SDS011;51680;49.806;18.774;2023-08-07T11:24:22;0.88;;;0.32;;
41043;SDS011;51680;49.806;18.774;2023-08-07T11:27:24;0.40;;;0.20;;
41043;SDS011;51680;49.806;18.774;2023-08-07T11:30:26;0.43;;;0.15;;
41043;SDS011;51680;49.806;18.774;2023-08-07T11:33:30;2.83;;;0.40;;
41043;SDS011;51680;49.806;18.774;2023-08-07T11:36:32;2.33;;;0.53;;
41043;SDS011;51680;49.806;18.774;2023-08-07T11:39:41;1.75;;;0.60;;
41043;SDS011;51680;49.806;18.774;2023-08-07T11:42:43;1.88;;;0.60;;
41043;SDS011;51680;49.806;18.774;2023-08-07T11:45:45;2.65;;;0.55;;
41043;SDS011;51680;49.806;18.774;2023-08-07T11:48:48;1.52;;;0.63;;
41043;SDS011;51680;49.806;18.774;2023-08-07T11:51:50;1.45;;;0.60;;
41043;SDS011;51680;49.806;18.774;2023-08-07T11:54:52;1.75;;;0.68;;
41043;SDS011;51680;49.806;18.774;2023-08-07T11:57:54;4.32;;;0.73;;
41043;SDS011;51680;49.806;18.774;2023-08-07T12:00:55;1.45;;;0.70;;
41043;SDS011;51680;49.806;18.774;2023-08-07T12:04:09;3.50;;;0.90;;
41043;SDS011;51680;49.806;18.774;2023-08-07T12:07:11;2.95;;;0.70;;
41043;SDS011;51680;49.806;18.774;2023-08-07T12:10:21;4.25;;;0.88;;
41043;SDS011;51680;49.806;18.774;2023-08-07T12:13:24;3.20;;;0.77;;
41043;SDS011;51680;49.806;18.774;2023-08-07T12:16:31;1.93;;;0.83;;
41043;SDS011;51680;49.806;18.774;2023-08-07T12:19:38;5.50;;;1.00;;
41043;SDS011;51680;49.806;18.774;2023-08-07T12:22:43;2.13;;;0.95;;
41043;SDS011;51680;49.806;18.774;2023-08-07T12:25:44;1.85;;;0.90;;
41043;SDS011;51680;49.806;18.774;2023-08-07T12:28:46;2.80;;;0.90;;
41043;SDS011;51680;49.806;18.774;2023-08-07T12:31:48;2.03;;;1.13;;
41043;SDS011;51680;49.806;18.774;2023-08-07T12:34:51;5.07;;;1.10;;
41043;SDS011;51680;49.806;18.774;2023-08-07T12:37:54;2.70;;;0.90;;
41043;SDS011;51680;49.806;18.774;2023-08-07T12:40:55;2.88;;;1.00;;
41043;SDS011;51680;49.806;18.774;2023-08-07T12:43:57;2.42;;;1.10;;
41043;SDS011;51680;49.806;18.774;2023-08-07T12:47:01;2.28;;;1.05;;
41043;SDS011;51680;49.806;18.774;2023-08-07T12:50:05;2.80;;;1.30;;
41043;SDS011;51680;49.806;18.774;2023-08-07T12:53:07;2.83;;;1.40;;
41043;SDS011;51680;49.806;18.774;2023-08-07T12:56:09;2.72;;;1.50;;
41043;SDS011;51680;49.806;18.774;2023-08-07T12:59:11;5.60;;;2.20;;
41043;SDS011;51680;49.806;18.774;2023-08-07T13:02:13;2.28;;;1.45;;
41043;SDS011;51680;49.806;18.774;2023-08-07T13:05:16;4.22;;;1.70;;
41043;SDS011;51680;49.806;18.774;2023-08-07T13:08:19;2.58;;;1.52;;
41043;SDS011;51680;49.806;18.774;2023-08-07T13:11:21;3.88;;;1.50;;
41043;SDS011;51680;49.806;18.774;2023-08-07T13:14:23;3.10;;;1.08;;
41043;SDS011;51680;49.806;18.774;2023-08-07T13:17:24;3.35;;;1.35;;
41043;SDS011;51680;49.806;18.774;2023-08-07T13:20:27;5.35;;;1.20;;
41043;SDS011;51680;49.806;18.774;2023-08-07T13:23:33;3.55;;;1.60;;
41043;SDS011;51680;49.806;18.774;2023-08-07T13:26:35;3.65;;;1.70;;
41043;SDS011;51680;49.806;18.774;2023-08-07T13:29:37;3.05;;;1.73;;
41043;SDS011;51680;49.806;18.774;2023-08-07T13:32:39;3.75;;;1.75;;
41043;SDS011;51680;49.806;18.774;2023-08-07T13:35:42;4.65;;;1.90;;
41043;SDS011;51680;49.806;18.774;2023-08-07T13:38:44;5.63;;;1.52;;
41043;SDS011;51680;49.806;18.774;2023-08-07T13:41:46;3.22;;;1.70;;
41043;SDS011;51680;49.806;18.774;2023-08-07T13:44:47;4.60;;;1.73;;
41043;SDS011;51680;49.806;18.774;2023-08-07T13:47:49;4.60;;;2.03;;
41043;SDS011;51680;49.806;18.774;2023-08-07T13:50:52;5.93;;;2.20;;
41043;SDS011;51680;49.806;18.774;2023-08-07T13:53:54;4.80;;;2.30;;
41043;SDS011;51680;49.806;18.774;2023-08-07T13:56:56;3.60;;;1.83;;
41043;SDS011;51680;49.806;18.774;2023-08-07T13:59:58;4.15;;;2.17;;
41043;SDS011;51680;49.806;18.774;2023-08-07T14:03:00;7.00;;;2.67;;
41043;SDS011;51680;49.806;18.774;2023-08-07T14:06:03;5.60;;;2.75;;
41043;SDS011;51680;49.806;18.774;2023-08-07T14:09:07;4.47;;;2.50;;
41043;SDS011;51680;49.806;18.774;2023-08-07T14:12:09;5.07;;;2.40;;
41043;SDS011;51680;49.806;18.774;2023-08-07T14:15:11;3.75;;;2.20;;
41043;SDS011;51680;49.806;18.774;2023-08-07T14:18:13;7.03;;;2.47;;
41043;SDS011;51680;49.806;18.774;2023-08-07T14:21:17;4.72;;;2.17;;
41043;SDS011;51680;49.806;18.774;2023-08-07T14:24:19;3.78;;;2.10;;
41043;SDS011;51680;49.806;18.774;2023-08-07T14:27:21;4.95;;;2.03;;
41043;SDS011;51680;49.806;18.774;2023-08-07T14:30:22;4.13;;;2.00;;
41043;SDS011;51680;49.806;18.774;2023-08-07T14:33:24;3.33;;;1.67;;
41043;SDS011;51680;49.806;18.774;2023-08-07T14:36:27;2.67;;;1.30;;
41043;SDS011;51680;49.806;18.774;2023-08-07T14:39:29;6.23;;;1.50;;
41043;SDS011;51680;49.806;18.774;2023-08-07T14:42:31;3.83;;;1.70;;
41043;SDS011;51680;49.806;18.774;2023-08-07T14:45:33;4.32;;;1.70;;
41043;SDS011;51680;49.806;18.774;2023-08-07T14:48:34;5.30;;;1.40;;
41043;SDS011;51680;49.806;18.774;2023-08-07T14:51:37;4.70;;;1.40;;
41043;SDS011;51680;49.806;18.774;2023-08-07T14:54:39;7.97;;;2.13;;
41043;SDS011;51680;49.806;18.774;2023-08-07T14:57:41;4.47;;;1.55;;
41043;SDS011;51680;49.806;18.774;2023-08-07T15:00:43;3.50;;;1.52;;
41043;SDS011;51680;49.806;18.774;2023-08-07T15:03:44;5.95;;;1.60;;
41043;SDS011;51680;49.806;18.774;2023-08-07T15:06:48;4.45;;;1.80;;
41043;SDS011;51680;49.806;18.774;2023-08-07T15:09:50;3.22;;;1.20;;
41043;SDS011;51680;49.806;18.774;2023-08-07T15:12:52;4.35;;;1.42;;
41043;SDS011;51680;49.806;18.774;2023-08-07T15:15:54;5.47;;;1.77;;
41043;SDS011;51680;49.806;18.774;2023-08-07T15:18:56;6.45;;;1.60;;
41043;SDS011;51680;49.806;18.774;2023-08-07T15:21:59;4.88;;;1.63;;
41043;SDS011;51680;49.806;18.774;2023-08-07T15:25:01;4.83;;;1.30;;
41043;SDS011;51680;49.806;18.774;2023-08-07T15:28:03;2.40;;;1.35;;
41043;SDS011;51680;49.806;18.774;2023-08-07T15:31:05;3.10;;;1.15;;
41043;SDS011;51680;49.806;18.774;2023-08-07T15:34:06;2.72;;;1.38;;
41043;SDS011;51680;49.806;18.774;2023-08-07T15:37:09;2.50;;;1.30;;
41043;SDS011;51680;49.806;18.774;2023-08-07T15:40:11;6.53;;;1.50;;
41043;SDS011;51680;49.806;18.774;2023-08-07T15:43:13;3.70;;;1.25;;
41043;SDS011;51680;49.806;18.774;2023-08-07T15:46:15;3.15;;;1.63;;
41043;SDS011;51680;49.806;18.774;2023-08-07T15:49:17;4.15;;;1.40;;
41043;SDS011;51680;49.806;18.774;2023-08-07T15:52:20;3.45;;;1.52;;
41043;SDS011;51680;49.806;18.774;2023-08-07T15:55:22;4.70;;;1.40;;
41043;SDS011;51680;49.806;18.774;2023-08-07T15:58:24;4.30;;;1.52;;
41043;SDS011;51680;49.806;18.774;2023-08-07T16:01:26;2.60;;;1.60;;
41043;SDS011;51680;49.806;18.774;2023-08-07T16:04:27;5.03;;;1.35;;
41043;SDS011;51680;49.806;18.774;2023-08-07T16:07:30;4.28;;;1.38;;
41043;SDS011;51680;49.806;18.774;2023-08-07T16:10:32;4.37;;;1.30;;
41043;SDS011;51680;49.806;18.774;2023-08-07T16:13:34;3.28;;;1.48;;
41043;SDS011;51680;49.806;18.774;2023-08-07T16:16:36;2.65;;;1.42;;
41043;SDS011;51680;49.806;18.774;2023-08-07T16:19:38;2.72;;;1.35;;
41043;SDS011;51680;49.806;18.774;2023-08-07T16:22:41;5.80;;;1.40;;
41043;SDS011;51680;49.806;18.774;2023-08-07T16:25:43;2.23;;;1.20;;
41043;SDS011;51680;49.806;18.774;2023-08-07T16:28:45;8.00;;;1.40;;
41043;SDS011;51680;49.806;18.774;2023-08-07T16:31:46;3.20;;;1.33;;
41043;SDS011;51680;49.806;18.774;2023-08-07T16:34:48;3.90;;;1.50;;
41043;SDS011;51680;49.806;18.774;2023-08-07T16:37:51;3.35;;;1.27;;
41043;SDS011;51680;49.806;18.774;2023-08-07T16:40:53;3.33;;;1.40;;
41043;SDS011;51680;49.806;18.774;2023-08-07T16:43:55;3.75;;;1.50;;
41043;SDS011;51680;49.806;18.774;2023-08-07T16:46:57;3.47;;;1.50;;
41043;SDS011;51680;49.806;18.774;2023-08-07T16:49:59;3.78;;;1.20;;
41043;SDS011;51680;49.806;18.774;2023-08-07T16:53:02;2.42;;;1.30;;
41043;SDS011;51680;49.806;18.774;2023-08-07T16:56:04;2.28;;;1.20;;
41043;SDS011;51680;49.806;18.774;2023-08-07T16:59:06;4.50;;;1.45;;
41043;SDS011;51680;49.806;18.774;2023-08-07T17:02:07;3.95;;;1.50;;
41043;SDS011;51680;49.806;18.774;2023-08-07T17:05:09;2.78;;;1.27;;
41043;SDS011;51680;49.806;18.774;2023-08-07T17:08:13;2.45;;;1.23;;
41043;SDS011;51680;49.806;18.774;2023-08-07T17:11:14;3.23;;;1.03;;
41043;SDS011;51680;49.806;18.774;2023-08-07T17:14:16;2.47;;;1.20;;
41043;SDS011;51680;49.806;18.774;2023-08-07T17:17:18;3.40;;;1.40;;
41043;SDS011;51680;49.806;18.774;2023-08-07T17:20:20;3.30;;;1.30;;
41043;SDS011;51680;49.806;18.774;2023-08-07T17:23:23;2.47;;;1.00;;
41043;SDS011;51680;49.806;18.774;2023-08-07T17:26:24;5.40;;;1.30;;
41043;SDS011;51680;49.806;18.774;2023-08-07T17:29:29;2.38;;;0.95;;
41043;SDS011;51680;49.806;18.774;2023-08-07T17:32:31;5.40;;;1.13;;
41043;SDS011;51680;49.806;18.774;2023-08-07T17:35:33;1.67;;;0.90;;
41043;SDS011;51680;49.806;18.774;2023-08-07T17:38:36;2.08;;;1.00;;
41043;SDS011;51680;49.806;18.774;2023-08-07T17:41:38;3.70;;;1.00;;
41043;SDS011;51680;49.806;18.774;2023-08-07T17:44:39;2.13;;;1.00;;
41043;SDS011;51680;49.806;18.774;2023-08-07T17:47:41;3.55;;;1.00;;
41043;SDS011;51680;49.806;18.774;2023-08-07T17:50:43;1.90;;;1.08;;
41043;SDS011;51680;49.806;18.774;2023-08-07T17:53:47;2.95;;;0.95;;
41043;SDS011;51680;49.806;18.774;2023-08-07T17:56:48;2.38;;;1.10;;
41043;SDS011;51680;49.806;18.774;2023-08-07T17:59:50;4.15;;;1.20;;
41043;SDS011;51680;49.806;18.774;2023-08-07T18:02:53;2.17;;;0.88;;
41043;SDS011;51680;49.806;18.774;2023-08-07T18:05:55;4.40;;;1.38;;
41043;SDS011;51680;49.806;18.774;2023-08-07T18:08:58;3.30;;;1.00;;